Time;durP1;ratioP1;P1;durP2;ratioP2;P2;SDS_P1;SDS_P2;PMS_P1;PMS_P2;Temp;Humidity;BMP_temperature;BMP_pressure;BME280_temperature;BME280_humidity;BME280_pressure;Samples;Min_cycle;Max_cycle;Signal;HPM_P1;HPM_P2
2022/03/05 00:00:20;;;;;;;22.38;12.68;;;6.50;55.20;;;;;;5063772;28;20365;-65
2022/03/05 00:02:46;;;;;;;24.60;14.18;;;6.40;55.30;;;;;;5069919;28;20558;-61
2022/03/05 00:05:13;;;;;;;23.73;12.85;;;6.40;56.10;;;;;;5071054;28;20483;-61
2022/03/05 00:07:39;;;;;;;23.50;12.70;;;6.30;55.60;;;;;;5065741;28;20044;-65
2022/03/05 00:10:05;;;;;;;23.98;13.35;;;6.30;55.80;;;;;;5072430;28;20039;-61
2022/03/05 00:12:31;;;;;;;20.65;12.05;;;6.30;56.10;;;;;;5070588;28;20032;-66
2022/03/05 00:14:57;;;;;;;25.95;14.10;;;6.20;56.00;;;;;;5054733;28;20032;-65
2022/03/05 00:17:23;;;;;;;24.83;13.98;;;6.20;56.20;;;;;;5069999;28;20025;-61
2022/03/05 00:19:49;;;;;;;24.00;13.43;;;6.20;56.50;;;;;;5060741;28;20382;-62
2022/03/05 00:22:15;;;;;;;24.85;13.98;;;6.10;56.40;;;;;;5052689;28;20025;-61
2022/03/05 00:24:40;;;;;;;24.88;13.70;;;6.10;56.30;;;;;;5068788;28;20028;-63
2022/03/05 00:27:09;;;;;;;23.08;14.30;;;6.10;56.50;;;;;;5063183;28;20037;-61
2022/03/05 00:29:35;;;;;;;22.77;13.40;;;6.00;56.50;;;;;;5102044;28;20027;-61
2022/03/05 00:32:00;;;;;;;23.35;12.43;;;6.00;56.50;;;;;;5066587;28;20468;-61
2022/03/05 00:34:26;;;;;;;24.08;13.95;;;6.00;56.60;;;;;;5058895;28;20435;-61
2022/03/05 00:36:52;;;;;;;23.00;13.13;;;5.90;57.00;;;;;;5063812;28;20033;-65
2022/03/05 00:39:17;;;;;;;25.35;13.90;;;5.90;57.00;;;;;;5066481;28;20017;-65
2022/03/05 00:41:43;;;;;;;24.02;13.65;;;5.90;57.10;;;;;;5060166;28;20096;-61
2022/03/05 00:44:09;;;;;;;23.58;13.32;;;5.80;57.20;;;;;;5056303;28;20082;-61
2022/03/05 00:46:34;;;;;;;23.63;13.52;;;5.80;57.20;;;;;;5059137;28;20059;-61
2022/03/05 00:49:00;;;;;;;22.48;13.48;;;5.80;57.40;;;;;;5056367;28;20060;-61
2022/03/05 00:51:26;;;;;;;25.15;14.35;;;5.70;57.40;;;;;;5069944;28;20487;-65
2022/03/05 00:53:54;;;;;;;24.90;13.45;;;5.70;57.40;;;;;;5061853;28;20403;-61
2022/03/05 00:56:20;;;;;;;24.92;13.18;;;5.70;57.40;;;;;;5058144;28;20025;-65
2022/03/05 00:58:46;;;;;;;23.65;13.45;;;5.60;57.60;;;;;;5059243;28;20032;-65
2022/03/05 01:01:12;;;;;;;26.58;13.93;;;5.60;57.60;;;;;;5070111;28;20025;-66
2022/03/05 01:03:38;;;;;;;24.08;13.75;;;5.50;57.70;;;;;;5060273;28;20526;-62
2022/03/05 01:06:04;;;;;;;25.58;13.73;;;5.50;57.90;;;;;;5055250;28;20183;-62
2022/03/05 01:08:30;;;;;;;28.17;14.38;;;5.50;57.90;;;;;;5088537;28;20036;-61
2022/03/05 01:10:56;;;;;;;25.85;14.52;;;5.50;58.00;;;;;;5068350;28;20016;-65
2022/03/05 01:13:22;;;;;;;23.52;13.70;;;5.40;58.10;;;;;;5068753;28;20032;-66
2022/03/05 01:15:48;;;;;;;26.38;14.23;;;5.40;58.20;;;;;;5062059;28;20032;-66
2022/03/05 01:18:13;;;;;;;25.17;13.48;;;5.40;58.20;;;;;;5065434;28;20043;-61
2022/03/05 01:20:39;;;;;;;26.65;15.35;;;5.30;58.20;;;;;;5051615;28;20039;-61
2022/03/05 01:23:04;;;;;;;27.58;15.30;;;5.30;58.30;;;;;;5058411;28;20114;-61
2022/03/05 01:25:30;;;;;;;25.45;13.52;;;5.30;58.60;;;;;;5058336;28;20040;-62
2022/03/05 01:27:56;;;;;;;26.40;14.07;;;5.20;58.50;;;;;;5068763;28;20032;-61
2022/03/05 01:30:22;;;;;;;27.42;14.82;;;5.20;58.60;;;;;;5052666;28;20072;-66
2022/03/05 01:32:47;;;;;;;27.10;14.05;;;5.20;58.70;;;;;;5068046;28;20037;-62
2022/03/05 01:35:13;;;;;;;27.33;14.75;;;5.20;58.70;;;;;;5059236;28;20049;-62
2022/03/05 01:37:39;;;;;;;27.45;14.60;;;5.10;58.70;;;;;;5064757;28;20029;-61
2022/03/05 01:40:05;;;;;;;26.95;14.77;;;5.10;58.90;;;;;;5053760;28;20063;-62
2022/03/05 01:42:31;;;;;;;25.00;14.52;;;5.00;58.90;;;;;;5065692;28;20032;-61
2022/03/05 01:44:57;;;;;;;27.73;14.95;;;5.00;59.00;;;;;;5065398;28;20032;-61
2022/03/05 01:47:23;;;;;;;26.52;15.20;;;5.00;59.00;;;;;;5057882;28;20039;-61
2022/03/05 01:49:48;;;;;;;28.85;15.48;;;4.90;59.60;;;;;;5063710;28;20040;-61
2022/03/05 01:52:14;;;;;;;29.15;15.38;;;4.90;59.10;;;;;;5052069;28;20543;-61
2022/03/05 01:54:40;;;;;;;27.85;15.65;;;4.90;59.30;;;;;;5064794;28;20028;-62
2022/03/05 01:57:06;;;;;;;26.05;14.85;;;4.90;59.30;;;;;;5058521;28;20048;-66
2022/03/05 01:59:33;;;;;;;28.13;15.45;;;4.80;59.40;;;;;;5069562;28;20035;-65
2022/03/05 02:02:00;;;;;;;30.13;16.13;;;4.80;59.50;;;;;;5058110;28;20107;-66
2022/03/05 02:04:26;;;;;;;27.33;15.43;;;4.80;59.60;;;;;;5097484;28;20041;-66
2022/03/05 02:06:53;;;;;;;29.77;15.60;;;4.80;59.60;;;;;;5060034;28;20106;-62
2022/03/05 02:09:19;;;;;;;30.23;15.52;;;4.70;59.60;;;;;;5074656;28;20025;-62
2022/03/05 02:11:45;;;;;;;28.38;15.43;;;4.70;59.70;;;;;;5069377;28;20375;-62
2022/03/05 02:14:11;;;;;;;29.08;15.10;;;4.70;59.80;;;;;;5064359;28;20021;-62
2022/03/05 02:16:36;;;;;;;31.08;15.90;;;4.60;59.80;;;;;;5062461;28;20488;-61
2022/03/05 02:19:04;;;;;;;29.48;15.75;;;4.60;60.00;;;;;;5059412;28;20391;-66
2022/03/05 02:21:30;;;;;;;32.90;16.73;;;4.60;60.00;;;;;;5060459;28;20025;-62
2022/03/05 02:23:56;;;;;;;33.45;16.25;;;4.50;60.20;;;;;;5055198;28;20029;-65
2022/03/05 02:26:22;;;;;;;29.85;15.90;;;4.50;60.20;;;;;;5061239;28;20039;-61
2022/03/05 02:28:49;;;;;;;34.33;17.30;;;4.50;60.40;;;;;;5062248;28;20025;-61
2022/03/05 02:31:15;;;;;;;30.92;16.13;;;4.40;60.40;;;;;;5065671;28;20404;-61
2022/03/05 02:33:42;;;;;;;31.15;15.77;;;4.40;60.50;;;;;;5055918;28;20023;-61
2022/03/05 02:36:08;;;;;;;31.02;16.42;;;4.40;60.50;;;;;;5065093;28;20025;-62
2022/03/05 02:38:33;;;;;;;31.77;17.23;;;4.30;60.60;;;;;;5059666;28;20090;-66
2022/03/05 02:41:00;;;;;;;31.58;17.00;;;4.30;60.70;;;;;;5053877;28;20487;-66
2022/03/05 02:43:26;;;;;;;33.80;17.58;;;4.30;60.70;;;;;;5062717;28;20062;-66
2022/03/05 02:45:52;;;;;;;31.08;16.83;;;4.20;60.80;;;;;;5056764;28;20410;-66
2022/03/05 02:48:19;;;;;;;30.50;16.13;;;4.20;60.90;;;;;;5066568;28;20021;-66
2022/03/05 02:50:46;;;;;;;35.42;17.70;;;4.20;60.80;;;;;;5058894;28;20036;-66
2022/03/05 02:53:12;;;;;;;37.97;17.20;;;4.20;61.20;;;;;;5067313;28;20414;-66
2022/03/05 02:55:38;;;;;;;34.10;17.13;;;4.10;61.10;;;;;;5052929;28;20078;-61
2022/03/05 02:58:04;;;;;;;35.60;17.23;;;4.10;61.10;;;;;;5067420;28;20395;-66
2022/03/05 03:00:30;;;;;;;32.38;17.50;;;4.10;61.20;;;;;;5060381;28;20025;-61
2022/03/05 03:02:56;;;;;;;32.72;17.65;;;4.00;61.20;;;;;;5069294;28;20491;-61
2022/03/05 03:05:22;;;;;;;34.75;17.20;;;4.00;61.40;;;;;;5064027;28;20360;-62
2022/03/05 03:07:48;;;;;;;34.85;17.00;;;4.00;61.40;;;;;;5068938;28;20024;-66
2022/03/05 03:10:15;;;;;;;31.83;17.13;;;4.00;61.50;;;;;;5069072;28;20417;-66
2022/03/05 03:12:42;;;;;;;35.75;18.38;;;3.90;61.60;;;;;;5066129;28;20064;-66
2022/03/05 03:15:10;;;;;;;32.45;15.90;;;3.90;61.70;;;;;;5068218;28;20024;-66
2022/03/05 03:17:49;;;;;;;33.33;17.10;;;3.90;61.70;;;;;;5067605;28;20065;-61
2022/03/05 03:20:18;;;;;;;34.95;18.45;;;3.90;61.80;;;;;;5062268;28;20044;-61
2022/03/05 03:22:45;;;;;;;36.15;16.77;;;3.90;62.00;;;;;;5061423;28;20142;-66
2022/03/05 03:25:14;;;;;;;35.33;17.15;;;3.80;61.90;;;;;;5063536;28;20041;-66
2022/03/05 03:27:40;;;;;;;37.78;18.05;;;3.80;62.00;;;;;;5058793;28;20177;-66
2022/03/05 03:30:08;;;;;;;38.25;16.92;;;3.80;62.00;;;;;;5069397;28;20112;-66
2022/03/05 03:32:34;;;;;;;36.35;17.55;;;3.70;61.90;;;;;;5059602;28;20447;-61
2022/03/05 03:35:04;;;;;;;34.65;16.83;;;3.70;62.00;;;;;;5065768;28;20116;-62
2022/03/05 03:37:31;;;;;;;37.67;18.13;;;3.70;62.20;;;;;;5055570;28;20490;-61
2022/03/05 03:39:57;;;;;;;37.33;18.10;;;3.60;62.10;;;;;;5068181;28;20059;-61
2022/03/05 03:42:24;;;;;;;36.28;17.55;;;3.60;62.30;;;;;;5060639;28;20033;-65
2022/03/05 03:44:50;;;;;;;34.65;17.27;;;3.60;62.30;;;;;;5065377;28;20498;-66
2022/03/05 03:47:17;;;;;;;33.90;16.50;;;3.60;62.30;;;;;;5061635;28;20067;-62
2022/03/05 03:49:43;;;;;;;37.42;17.63;;;3.60;62.40;;;;;;5068215;28;20590;-61
2022/03/05 03:52:09;;;;;;;36.60;17.27;;;3.60;62.50;;;;;;5067062;28;20383;-65
2022/03/05 03:54:35;;;;;;;35.90;17.73;;;3.50;62.50;;;;;;5064411;28;20041;-66
2022/03/05 03:57:01;;;;;;;36.10;18.30;;;3.50;62.60;;;;;;5063169;28;20040;-66
2022/03/05 03:59:27;;;;;;;37.88;18.92;;;3.50;62.70;;;;;;5068053;28;20471;-66
2022/03/05 04:01:52;;;;;;;36.45;16.92;;;3.50;62.60;;;;;;5059427;28;20025;-66
2022/03/05 04:04:18;;;;;;;38.28;17.80;;;3.40;62.70;;;;;;5049519;28;20060;-61
2022/03/05 04:09:28;;;;;;;36.05;18.05;;;3.40;63.00;;;;;;5068688;28;20047;-61
2022/03/05 04:11:54;;;;;;;34.45;17.45;;;3.40;63.00;;;;;;5067223;28;20546;-61
2022/03/05 04:14:19;;;;;;;39.33;18.05;;;3.40;63.10;;;;;;5071108;28;20025;-61
2022/03/05 04:16:45;;;;;;;35.45;17.33;;;3.30;63.10;;;;;;5069524;28;20162;-61
2022/03/05 04:19:10;;;;;;;35.13;17.20;;;3.30;63.10;;;;;;5078286;28;20086;-61
2022/03/05 04:21:36;;;;;;;40.08;17.90;;;3.30;63.20;;;;;;5070036;28;20032;-61
2022/03/05 04:24:02;;;;;;;37.15;18.33;;;3.30;63.30;;;;;;5067373;28;20029;-65
2022/03/05 04:26:28;;;;;;;38.85;17.63;;;3.30;63.40;;;;;;5062409;28;20043;-66
2022/03/05 04:28:54;;;;;;;37.22;17.70;;;3.30;63.50;;;;;;5053346;28;20033;-61
2022/03/05 04:31:19;;;;;;;36.67;17.77;;;3.20;63.40;;;;;;5053488;28;20093;-65
2022/03/05 04:33:45;;;;;;;44.33;19.00;;;3.20;63.50;;;;;;5057926;28;20028;-65
2022/03/05 04:36:11;;;;;;;41.13;17.98;;;3.20;63.70;;;;;;5066816;28;20100;-61
2022/03/05 04:38:36;;;;;;;37.97;17.65;;;3.20;63.80;;;;;;5061201;28;20024;-66
2022/03/05 04:41:02;;;;;;;40.17;18.08;;;3.20;63.90;;;;;;5077327;28;20041;-66
2022/03/05 04:43:28;;;;;;;39.67;17.45;;;3.10;63.80;;;;;;5054898;28;20128;-66
2022/03/05 04:45:53;;;;;;;40.60;18.73;;;3.10;63.80;;;;;;5062389;28;20331;-66
2022/03/05 04:48:19;;;;;;;36.00;17.58;;;3.10;63.90;;;;;;5062959;28;20039;-62
2022/03/05 04:50:48;;;;;;;34.72;16.35;;;3.00;63.80;;;;;;5068168;28;20043;-61
2022/03/05 04:53:19;;;;;;;37.88;17.73;;;3.10;64.00;;;;;;5065599;28;20052;-62
2022/03/05 04:55:46;;;;;;;38.78;17.50;;;3.00;64.00;;;;;;5098461;28;20068;-62
2022/03/05 04:58:12;;;;;;;36.90;17.35;;;3.00;64.00;;;;;;5067342;28;20032;-62
2022/03/05 05:00:37;;;;;;;40.00;17.23;;;3.00;64.00;;;;;;5067072;28;20111;-62
2022/03/05 05:03:03;;;;;;;38.30;16.67;;;3.00;64.10;;;;;;5060070;28;20116;-63
2022/03/05 05:05:29;;;;;;;38.67;18.00;;;3.00;64.20;;;;;;5062694;28;20057;-61
2022/03/05 05:07:54;;;;;;;35.63;17.30;;;2.90;64.00;;;;;;5061730;28;20452;-62
2022/03/05 05:10:20;;;;;;;39.55;17.77;;;3.00;64.20;;;;;;5063448;28;20040;-61
2022/03/05 05:12:46;;;;;;;43.25;18.90;;;2.90;64.10;;;;;;5065586;28;20036;-66
2022/03/05 05:15:11;;;;;;;38.80;17.05;;;2.90;64.20;;;;;;5064983;28;20035;-62
2022/03/05 05:17:38;;;;;;;37.67;18.80;;;2.90;64.30;;;;;;5075491;28;20055;-62
2022/03/05 05:20:05;;;;;;;36.38;17.30;;;2.90;64.20;;;;;;5060913;28;20078;-66
2022/03/05 05:22:32;;;;;;;36.72;16.77;;;2.80;64.20;;;;;;5056979;28;20029;-62
2022/03/05 05:24:59;;;;;;;35.75;16.85;;;2.80;64.30;;;;;;5060940;28;20462;-61
2022/03/05 05:27:25;;;;;;;39.50;17.27;;;2.80;64.50;;;;;;5061665;28;20039;-61
2022/03/05 05:29:50;;;;;;;38.22;17.95;;;2.80;64.50;;;;;;5061982;28;20474;-65
2022/03/05 05:32:19;;;;;;;38.75;17.75;;;2.80;64.70;;;;;;5060950;28;20082;-66
2022/03/05 05:34:45;;;;;;;39.22;17.23;;;2.70;64.70;;;;;;5070841;28;20040;-65
2022/03/05 05:37:21;;;;;;;37.90;17.50;;;2.70;64.70;;;;;;5069231;28;20078;-65
2022/03/05 05:39:47;;;;;;;38.25;17.23;;;2.70;64.70;;;;;;5043788;28;20043;-65
2022/03/05 05:42:13;;;;;;;38.83;17.40;;;2.70;64.80;;;;;;5068170;28;20029;-65
2022/03/05 05:44:40;;;;;;;39.75;17.35;;;2.70;64.90;;;;;;5070214;28;20027;-60
2022/03/05 05:47:29;;;;;;;35.17;16.48;;;2.70;64.90;;;;;;5059636;28;20033;-65
2022/03/05 05:49:55;;;;;;;37.13;17.67;;;2.60;64.90;;;;;;5067470;28;20052;-65
2022/03/05 05:52:24;;;;;;;37.45;16.98;;;2.60;65.00;;;;;;5057525;28;20071;-65
2022/03/05 05:54:49;;;;;;;38.78;18.45;;;2.60;65.10;;;;;;5069515;28;20101;-66
2022/03/05 05:57:21;;;;;;;39.65;17.40;;;2.60;65.20;;;;;;5059159;28;20021;-61
2022/03/05 05:59:47;;;;;;;39.38;17.00;;;2.60;65.10;;;;;;5069768;28;20035;-65
2022/03/05 06:02:13;;;;;;;42.33;18.20;;;2.60;65.20;;;;;;5066993;28;20021;-66
2022/03/05 06:04:39;;;;;;;38.97;17.85;;;2.60;65.30;;;;;;5067736;28;20122;-64
2022/03/05 06:07:08;;;;;;;41.33;17.75;;;2.50;65.50;;;;;;5060934;28;20024;-64
2022/03/05 06:09:34;;;;;;;38.80;16.67;;;2.50;65.30;;;;;;5069159;28;20024;-65
2022/03/05 06:12:00;;;;;;;38.05;17.50;;;2.50;65.40;;;;;;5060162;28;20090;-65
2022/03/05 06:14:26;;;;;;;38.95;16.75;;;2.50;65.30;;;;;;5070701;28;20024;-66
2022/03/05 06:16:52;;;;;;;38.20;17.23;;;2.50;65.40;;;;;;5061840;28;20037;-66
2022/03/05 06:19:21;;;;;;;38.05;17.80;;;2.40;65.20;;;;;;5052183;28;20029;-65
2022/03/05 06:21:50;;;;;;;39.78;19.42;;;2.40;65.40;;;;;;5066691;28;20033;-66
2022/03/05 06:24:16;;;;;;;35.30;17.00;;;2.40;65.40;;;;;;5064843;28;20093;-65
2022/03/05 06:26:53;;;;;;;38.92;17.20;;;2.40;65.40;;;;;;5052839;28;20033;-61
2022/03/05 06:29:19;;;;;;;41.22;18.30;;;2.40;65.50;;;;;;5065191;28;20040;-61
2022/03/05 06:31:44;;;;;;;42.60;18.58;;;2.40;65.50;;;;;;5061099;28;20028;-61
2022/03/05 06:34:10;;;;;;;41.03;18.17;;;2.30;65.60;;;;;;5068444;28;20028;-61
2022/03/05 06:36:36;;;;;;;38.22;17.63;;;2.40;65.70;;;;;;5067580;28;20039;-66
2022/03/05 06:39:02;;;;;;;37.28;16.63;;;2.30;65.70;;;;;;5063359;28;20476;-66
2022/03/05 06:41:28;;;;;;;37.22;17.40;;;2.30;65.70;;;;;;5058713;28;20423;-65
2022/03/05 06:43:53;;;;;;;43.60;18.30;;;2.30;65.80;;;;;;5062539;28;20028;-66
2022/03/05 06:46:19;;;;;;;39.40;17.63;;;2.30;65.80;;;;;;5068873;28;20101;-66
2022/03/05 06:48:46;;;;;;;37.50;17.23;;;2.30;65.90;;;;;;5066533;28;20515;-61
2022/03/05 06:51:12;;;;;;;39.15;17.52;;;2.30;66.00;;;;;;5056713;28;20033;-66
2022/03/05 06:53:41;;;;;;;37.53;17.33;;;2.30;66.10;;;;;;5064348;28;20037;-61
2022/03/05 06:56:07;;;;;;;41.17;17.75;;;2.30;66.20;;;;;;5068005;28;20035;-61
2022/03/05 06:58:36;;;;;;;42.90;18.48;;;2.40;66.40;;;;;;5065580;28;20029;-61
2022/03/05 07:01:12;;;;;;;41.67;19.08;;;2.30;66.40;;;;;;5069944;28;20068;-61
2022/03/05 07:03:37;;;;;;;40.10;17.17;;;2.30;66.40;;;;;;5064584;28;20037;-61
2022/03/05 07:06:04;;;;;;;39.95;17.63;;;2.30;66.50;;;;;;5069729;28;20067;-62
2022/03/05 07:08:29;;;;;;;40.00;18.10;;;2.30;66.50;;;;;;5066516;28;20040;-66
2022/03/05 07:10:58;;;;;;;39.92;17.58;;;2.40;66.80;;;;;;5055012;28;20029;-66
2022/03/05 07:13:24;;;;;;;37.13;16.25;;;2.40;66.80;;;;;;5069014;28;20025;-66
2022/03/05 07:15:50;;;;;;;41.13;17.77;;;2.40;66.90;;;;;;5069575;28;20093;-67
2022/03/05 07:18:16;;;;;;;41.97;18.33;;;2.40;67.00;;;;;;5067500;28;20084;-64
2022/03/05 07:20:44;;;;;;;41.58;17.88;;;2.40;67.00;;;;;;5069708;28;20037;-64
2022/03/05 07:23:10;;;;;;;39.92;18.02;;;2.40;67.10;;;;;;5051291;28;20036;-64
2022/03/05 07:25:39;;;;;;;36.78;17.25;;;2.40;67.10;;;;;;5068444;28;20028;-62
2022/03/05 07:28:06;;;;;;;33.75;15.57;;;2.40;67.10;;;;;;5063683;28;20029;-62
2022/03/05 07:30:32;;;;;;;45.75;18.60;;;2.50;67.20;;;;;;5064061;28;20099;-61
2022/03/05 07:32:57;;;;;;;41.40;17.55;;;2.50;67.30;;;;;;5061162;28;20567;-61
2022/03/05 07:35:23;;;;;;;39.38;17.63;;;2.50;67.30;;;;;;5104022;28;20032;-61
2022/03/05 07:37:49;;;;;;;41.05;17.35;;;2.50;67.30;;;;;;5070282;28;20064;-61
2022/03/05 07:40:15;;;;;;;40.60;18.98;;;2.50;67.40;;;;;;5068138;28;20033;-61
2022/03/05 07:42:40;;;;;;;38.60;17.55;;;2.60;67.50;;;;;;5065709;28;20442;-62
2022/03/05 07:45:10;;;;;;;38.38;17.35;;;2.60;67.50;;;;;;5076095;28;20063;-61
2022/03/05 07:47:36;;;;;;;39.42;17.25;;;2.60;67.50;;;;;;5078844;28;20032;-61
2022/03/05 07:50:28;;;;;;;39.05;17.60;;;2.60;67.50;;;;;;5070938;28;20387;-61
2022/03/05 07:52:53;;;;;;;43.17;18.33;;;2.60;67.50;;;;;;5069967;28;20041;-62
2022/03/05 07:55:19;;;;;;;38.08;17.83;;;2.70;67.50;;;;;;5070141;28;20028;-64
2022/03/05 07:57:46;;;;;;;43.85;18.30;;;2.70;67.60;;;;;;5078927;28;20039;-62
2022/03/05 08:00:12;;;;;;;41.03;17.73;;;2.70;67.50;;;;;;5072146;28;20080;-63
2022/03/05 08:02:37;;;;;;;39.80;17.58;;;2.80;67.60;;;;;;5068174;28;20028;-63
2022/03/05 08:05:03;;;;;;;41.92;18.50;;;2.80;67.50;;;;;;5068391;28;20548;-64
2022/03/05 08:07:29;;;;;;;37.22;17.42;;;2.90;67.60;;;;;;5063896;28;20044;-64
2022/03/05 08:09:55;;;;;;;37.92;17.67;;;2.90;67.50;;;;;;5067690;28;20033;-62
2022/03/05 08:12:20;;;;;;;39.10;17.70;;;3.00;67.50;;;;;;5069704;28;20028;-61
2022/03/05 08:14:48;;;;;;;40.53;17.83;;;3.00;67.50;;;;;;5071735;28;20040;-62
2022/03/05 08:17:14;;;;;;;36.45;16.80;;;3.00;67.40;;;;;;5068666;28;20502;-62
2022/03/05 08:19:40;;;;;;;38.60;17.65;;;3.00;67.40;;;;;;5069706;28;20033;-62
2022/03/05 08:22:06;;;;;;;37.53;17.77;;;3.10;68.10;;;;;;5068829;28;20107;-62
2022/03/05 08:24:31;;;;;;;34.13;16.88;;;3.10;67.40;;;;;;5069460;28;20111;-62
2022/03/05 08:26:57;;;;;;;38.58;16.95;;;3.10;67.30;;;;;;5073515;28;20394;-62
2022/03/05 08:29:24;;;;;;;34.17;16.48;;;3.20;67.30;;;;;;5076801;28;20441;-63
2022/03/05 08:31:50;;;;;;;35.63;16.95;;;3.30;67.30;;;;;;5070176;28;20036;-62
2022/03/05 08:34:16;;;;;;;36.60;16.17;;;3.30;67.30;;;;;;5075666;28;20143;-62
2022/03/05 08:36:41;;;;;;;36.53;17.50;;;3.40;67.00;;;;;;5072224;28;20457;-63
2022/03/05 08:39:07;;;;;;;37.33;16.83;;;3.40;67.00;;;;;;5064527;28;20025;-62
2022/03/05 08:41:33;;;;;;;37.28;17.75;;;3.50;67.30;;;;;;5066119;28;20503;-62
2022/03/05 08:43:59;;;;;;;34.92;16.88;;;3.50;67.20;;;;;;5057173;28;20383;-62
2022/03/05 08:46:26;;;;;;;34.60;16.70;;;3.50;67.00;;;;;;5068157;28;20028;-62
2022/03/05 08:48:52;;;;;;;37.05;17.45;;;3.60;67.00;;;;;;5067853;28;20025;-62
2022/03/05 08:51:18;;;;;;;38.55;17.70;;;3.60;66.80;;;;;;5067524;28;20028;-62
2022/03/05 08:54:02;;;;;;;35.40;17.80;;;3.70;66.70;;;;;;5062883;28;20040;-62
2022/03/05 08:56:27;;;;;;;32.08;17.25;;;3.80;66.60;;;;;;5064691;28;20037;-62
2022/03/05 08:58:53;;;;;;;36.25;16.90;;;3.80;66.50;;;;;;5061356;28;20444;-62
2022/03/05 09:01:20;;;;;;;36.83;17.90;;;3.90;66.40;;;;;;5069451;28;20064;-62
2022/03/05 09:03:45;;;;;;;39.20;18.20;;;4.00;66.10;;;;;;5062915;28;20025;-62
2022/03/05 09:06:11;;;;;;;36.05;16.85;;;4.00;66.10;;;;;;5065196;28;20457;-63
2022/03/05 09:08:38;;;;;;;35.83;16.55;;;4.10;66.20;;;;;;5065817;28;20036;-64
2022/03/05 09:11:05;;;;;;;38.25;17.30;;;4.20;66.10;;;;;;5068298;28;20037;-65
2022/03/05 09:13:31;;;;;;;34.70;17.42;;;4.30;65.80;;;;;;5059427;28;20509;-63
2022/03/05 09:15:57;;;;;;;41.50;18.38;;;4.30;65.70;;;;;;5062588;28;20479;-63
2022/03/05 09:18:22;;;;;;;34.03;15.82;;;4.40;65.60;;;;;;5061998;28;20021;-64
2022/03/05 09:20:48;;;;;;;35.50;17.73;;;4.50;65.30;;;;;;5067729;28;20075;-64
2022/03/05 09:23:15;;;;;;;34.97;17.23;;;4.50;65.00;;;;;;5060981;28;20025;-63
2022/03/05 09:25:41;;;;;;;36.33;18.58;;;4.60;65.10;;;;;;5059923;28;20025;-61
2022/03/05 09:28:06;;;;;;;36.75;18.23;;;4.60;64.80;;;;;;5070150;28;20066;-62
2022/03/05 09:30:32;;;;;;;35.53;18.10;;;4.60;64.80;;;;;;5070565;28;20031;-61
2022/03/05 09:32:58;;;;;;;36.40;17.67;;;4.70;64.80;;;;;;5063365;28;20036;-62
2022/03/05 09:35:24;;;;;;;37.80;18.23;;;4.80;65.10;;;;;;5060228;28;20029;-63
2022/03/05 09:37:50;;;;;;;39.55;20.00;;;4.90;64.50;;;;;;5070120;28;20466;-61
2022/03/05 09:40:16;;;;;;;39.90;19.48;;;5.00;64.20;;;;;;5070043;28;20107;-63
2022/03/05 09:42:43;;;;;;;37.92;18.95;;;5.10;64.00;;;;;;5068726;28;20066;-64
2022/03/05 09:45:14;;;;;;;37.65;18.48;;;5.20;63.90;;;;;;5066375;28;20035;-64
2022/03/05 09:47:41;;;;;;;36.97;18.92;;;5.40;63.80;;;;;;5067979;28;20077;-64
2022/03/05 09:50:08;;;;;;;35.83;18.42;;;5.40;63.40;;;;;;5064680;28;20044;-64
2022/03/05 09:52:34;;;;;;;37.40;18.50;;;5.50;63.20;;;;;;5069167;28;20025;-64
2022/03/05 09:55:01;;;;;;;35.90;17.92;;;5.50;63.30;;;;;;5059129;28;20078;-64
2022/03/05 09:57:26;;;;;;;31.60;17.23;;;5.60;63.30;;;;;;5067667;28;20074;-64
2022/03/05 09:59:52;;;;;;;33.38;17.17;;;5.70;63.20;;;;;;5059991;28;20020;-64
2022/03/05 10:02:18;;;;;;;37.78;19.17;;;5.90;63.00;;;;;;5069168;28;20518;-64
2022/03/05 10:04:44;;;;;;;36.15;18.65;;;5.90;62.60;;;;;;5064265;28;20756;-64
2022/03/05 10:07:11;;;;;;;36.38;18.45;;;6.00;62.60;;;;;;5065654;28;20031;-63
2022/03/05 10:09:38;;;;;;;35.17;18.90;;;6.10;62.50;;;;;;5067317;28;20096;-64
2022/03/05 10:12:26;;;;;;;36.17;19.45;;;6.20;62.30;;;;;;5069225;28;20025;-63
2022/03/05 10:15:12;;;;;;;36.65;19.05;;;6.30;62.10;;;;;;5069530;28;20054;-61
2022/03/05 10:17:55;;;;;;;33.63;18.60;;;6.40;61.80;;;;;;5051151;28;20023;-62
2022/03/05 10:20:27;;;;;;;36.13;19.00;;;6.50;61.50;;;;;;5049988;28;20371;-62
2022/03/05 10:23:07;;;;;;;36.83;19.75;;;6.60;61.40;;;;;;5054806;28;20092;-62
2022/03/05 10:25:43;;;;;;;34.83;19.48;;;6.70;61.30;;;;;;5059771;28;20496;-62
2022/03/05 10:28:17;;;;;;;35.90;18.85;;;6.80;60.90;;;;;;5053101;28;20035;-63
2022/03/05 10:30:49;;;;;;;32.17;17.38;;;6.90;60.80;;;;;;5048760;28;20402;-63
2022/03/05 10:33:29;;;;;;;33.95;18.10;;;7.00;60.60;;;;;;5054628;28;20445;-63
2022/03/05 10:35:56;;;;;;;37.00;20.15;;;7.10;60.20;;;;;;5048909;28;20391;-63
2022/03/05 10:38:23;;;;;;;39.33;19.98;;;7.20;59.90;;;;;;5065081;28;20025;-64
2022/03/05 10:40:54;;;;;;;39.55;19.63;;;7.20;59.80;;;;;;5081658;28;20446;-64
2022/03/05 10:43:23;;;;;;;38.85;19.17;;;7.30;59.70;;;;;;5062067;28;20032;-63
2022/03/05 10:45:55;;;;;;;35.30;18.95;;;7.40;59.50;;;;;;5047478;28;20306;-62
2022/03/05 10:48:22;;;;;;;31.75;18.67;;;7.40;59.80;;;;;;5051980;28;20032;-63
2022/03/05 10:50:48;;;;;;;31.35;17.92;;;7.50;59.10;;;;;;5065100;28;20042;-63
2022/03/05 10:53:13;;;;;;;31.35;17.05;;;7.70;59.20;;;;;;5059199;28;20431;-62
2022/03/05 10:55:39;;;;;;;37.13;20.05;;;7.80;58.90;;;;;;5065081;28;20507;-63
2022/03/05 10:58:17;;;;;;;37.00;19.70;;;7.80;58.30;;;;;;5067192;28;20058;-62
2022/03/05 11:00:43;;;;;;;33.67;18.83;;;8.00;58.30;;;;;;5062811;28;20016;-62
2022/03/05 11:03:09;;;;;;;30.95;18.10;;;8.10;58.10;;;;;;5067288;28;20036;-62
2022/03/05 11:05:38;;;;;;;33.00;18.27;;;8.20;57.80;;;;;;5086270;28;20060;-61
2022/03/05 11:08:05;;;;;;;30.85;18.17;;;8.30;57.50;;;;;;5062037;28;20385;-63
2022/03/05 11:10:31;;;;;;;36.20;19.33;;;8.40;57.40;;;;;;5056617;28;20040;-67
2022/03/05 11:13:00;;;;;;;34.33;19.63;;;8.50;57.00;;;;;;5065454;28;20024;-65
2022/03/05 11:15:27;;;;;;;33.88;18.23;;;8.60;56.90;;;;;;5057132;28;20120;-65
2022/03/05 11:17:53;;;;;;;29.80;17.67;;;8.60;56.50;;;;;;5062379;28;20499;-66
2022/03/05 11:20:19;;;;;;;35.63;19.25;;;8.70;56.40;;;;;;5059921;28;20036;-66
2022/03/05 11:22:49;;;;;;;35.38;19.85;;;8.80;55.90;;;;;;5055272;28;20089;-65
2022/03/05 11:25:20;;;;;;;32.95;18.02;;;8.90;55.80;;;;;;5064002;28;20048;-65
2022/03/05 11:28:01;;;;;;;28.63;16.95;;;9.00;56.00;;;;;;5068079;28;20483;-66
2022/03/05 11:30:38;;;;;;;36.25;21.13;;;9.20;55.70;;;;;;5052622;28;20021;-66
2022/03/05 11:33:08;;;;;;;33.53;20.02;;;9.30;54.90;;;;;;5058320;28;20221;-65
2022/03/05 11:35:34;;;;;;;34.65;20.52;;;9.30;54.40;;;;;;5058709;28;20454;-63
2022/03/05 11:38:00;;;;;;;38.15;18.02;;;9.40;54.50;;;;;;5063164;28;20111;-63
2022/03/05 11:40:37;;;;;;;30.33;18.67;;;9.50;54.40;;;;;;5058500;28;20029;-64
2022/03/05 11:43:20;;;;;;;27.65;16.05;;;9.50;54.30;;;;;;5064843;28;20483;-64
2022/03/05 11:46:02;;;;;;;33.33;18.65;;;9.60;54.10;;;;;;5067686;28;20029;-64
2022/03/05 11:48:32;;;;;;;32.92;19.05;;;9.70;53.80;;;;;;5072344;28;20459;-65
2022/03/05 11:51:12;;;;;;;31.05;19.00;;;9.80;53.40;;;;;;5072213;28;20024;-63
2022/03/05 11:53:38;;;;;;;27.88;16.08;;;9.80;53.50;;;;;;5053473;28;20683;-64
2022/03/05 11:56:24;;;;;;;25.63;16.08;;;10.00;53.50;;;;;;5062594;28;20036;-64
2022/03/05 11:58:50;;;;;;;31.02;17.55;;;10.10;53.10;;;;;;5052586;28;20052;-63
2022/03/05 12:01:40;;;;;;;30.83;18.90;;;10.10;52.30;;;;;;5070649;28;20055;-63
2022/03/05 12:04:28;;;;;;;29.83;18.55;;;10.20;52.20;;;;;;5065461;28;20025;-63
2022/03/05 12:07:13;;;;;;;28.35;16.73;;;10.40;52.40;;;;;;5050506;28;20029;-63
2022/03/05 12:09:52;;;;;;;31.05;17.50;;;10.50;52.00;;;;;;5067334;28;20055;-64
2022/03/05 12:12:18;;;;;;;31.05;18.33;;;10.60;52.00;;;;;;5072359;28;20036;-63
2022/03/05 12:15:03;;;;;;;31.40;17.73;;;10.70;52.50;;;;;;5070820;28;20327;-63
2022/03/05 12:17:40;;;;;;;31.50;19.55;;;10.70;51.20;;;;;;5080307;28;20578;-64
2022/03/05 12:20:12;;;;;;;31.90;19.13;;;10.80;50.50;;;;;;5069532;28;20029;-64
2022/03/05 12:22:52;;;;;;;30.55;18.80;;;10.70;50.40;;;;;;5065652;28;20029;-64
2022/03/05 12:25:18;;;;;;;30.15;17.30;;;10.80;50.90;;;;;;5063716;28;20123;-64
2022/03/05 12:27:52;;;;;;;28.40;17.65;;;10.90;51.10;;;;;;5066870;28;20052;-64
2022/03/05 12:30:19;;;;;;;26.33;17.27;;;11.00;50.40;;;;;;5072304;28;20032;-64
2022/03/05 12:32:47;;;;;;;33.50;19.65;;;11.20;50.50;;;;;;5065309;28;20031;-64
2022/03/05 12:35:15;;;;;;;28.90;17.80;;;11.30;49.90;;;;;;5061904;28;20033;-64
2022/03/05 12:37:43;;;;;;;27.45;17.35;;;11.40;49.50;;;;;;5064747;28;20021;-64
2022/03/05 12:40:09;;;;;;;32.05;18.80;;;11.40;49.80;;;;;;5063669;28;20365;-63